createdAt,value
2022-10-27T00:01:37.247Z,10.67
2022-10-27T00:04:06.073Z,11.40
2022-10-27T00:06:35.480Z,9.50
2022-10-27T00:09:04.359Z,9.50
2022-10-27T00:11:32.902Z,10.10
2022-10-27T00:14:02.714Z,10.47
2022-10-27T00:16:31.568Z,10.50
2022-10-27T00:19:00.038Z,9.80
2022-10-27T00:21:28.527Z,8.20
2022-10-27T00:23:57.026Z,8.97
2022-10-27T00:26:25.578Z,8.57
2022-10-27T00:28:56.825Z,8.70
2022-10-27T00:31:26.637Z,7.90
2022-10-27T00:33:55.440Z,8.70
2022-10-27T00:36:25.124Z,8.77
2022-10-27T00:38:54.826Z,9.13
2022-10-27T00:41:28.974Z,8.87
2022-10-27T00:43:58.423Z,10.33
2022-10-27T00:46:32.979Z,9.50
2022-10-27T00:49:05.088Z,9.63
2022-10-27T00:51:33.671Z,8.87
2022-10-27T00:54:02.715Z,9.07
2022-10-27T00:56:31.229Z,10.30
2022-10-27T00:58:59.780Z,9.10
2022-10-27T01:01:29.964Z,8.47
2022-10-27T01:03:58.723Z,9.47
2022-10-27T01:06:27.809Z,8.37
2022-10-27T01:08:56.504Z,8.17
2022-10-27T01:11:24.975Z,8.77
2022-10-27T01:13:53.563Z,8.13
2022-10-27T01:16:28.287Z,9.53
2022-10-27T01:19:04.908Z,10.20
2022-10-27T01:21:55.656Z,9.17
2022-10-27T01:24:45.677Z,7.90
2022-10-27T01:27:29.053Z,7.27
2022-10-27T01:30:06.099Z,5.27
2022-10-27T01:32:42.042Z,5.13
2022-10-27T01:35:17.201Z,5.77
2022-10-27T01:37:49.441Z,4.93
2022-10-27T01:40:23.856Z,5.03
2022-10-27T01:42:55.713Z,6.43
2022-10-27T01:45:27.315Z,5.00
2022-10-27T01:47:57.805Z,5.20
2022-10-27T01:50:40.019Z,4.37
2022-10-27T01:53:18.569Z,4.87
2022-10-27T01:55:55.770Z,4.53
2022-10-27T01:58:36.609Z,4.83
2022-10-27T02:01:16.664Z,4.50
2022-10-27T02:03:52.189Z,4.73
2022-10-27T02:06:23.653Z,4.60
2022-10-27T02:08:54.796Z,4.90
2022-10-27T02:11:23.510Z,4.50
2022-10-27T02:13:52.163Z,4.73
2022-10-27T02:16:23.091Z,4.70
2022-10-27T02:18:55.350Z,3.70
2022-10-27T02:21:24.340Z,4.43
2022-10-27T02:23:53.351Z,4.60
2022-10-27T02:26:25.311Z,5.37
2022-10-27T02:28:57.489Z,5.13
2022-10-27T02:31:29.229Z,4.43
2022-10-27T02:33:59.191Z,4.60
2022-10-27T02:36:28.429Z,4.87
2022-10-27T02:38:56.924Z,4.27
2022-10-27T02:41:25.523Z,4.77
2022-10-27T02:43:54.035Z,4.57
2022-10-27T02:46:23.224Z,4.80
2022-10-27T02:48:51.755Z,5.47
2022-10-27T02:51:21.511Z,5.73
2022-10-27T02:53:49.918Z,5.00
2022-10-27T02:56:18.352Z,6.37
2022-10-27T02:58:46.758Z,6.07
2022-10-27T03:01:15.442Z,5.20
2022-10-27T03:03:44.067Z,4.77
2022-10-27T03:06:12.487Z,4.90
2022-10-27T03:08:42.315Z,4.63
2022-10-27T03:11:10.772Z,4.73
2022-10-27T03:13:39.187Z,5.00
2022-10-27T03:16:08.273Z,4.60
2022-10-27T03:18:36.738Z,5.90
2022-10-27T03:21:05.183Z,5.60
2022-10-27T03:23:33.696Z,4.70
2022-10-27T03:26:03.501Z,4.17
2022-10-27T03:28:35.352Z,4.67
2022-10-27T03:31:04.156Z,4.77
2022-10-27T03:33:33.017Z,4.87
2022-10-27T03:36:01.530Z,4.70
2022-10-27T03:38:30.026Z,4.03
2022-10-27T03:40:58.542Z,4.63
2022-10-27T03:43:28.335Z,5.13
2022-10-27T03:46:00.063Z,4.60
2022-10-27T03:48:29.508Z,4.60
2022-10-27T03:50:57.972Z,4.03
2022-10-27T03:53:26.477Z,4.80
2022-10-27T03:55:54.951Z,4.10
2022-10-27T03:58:23.446Z,3.80
2022-10-27T04:00:53.355Z,3.53
2022-10-27T04:03:21.856Z,3.80
2022-10-27T04:05:51.546Z,4.20
2022-10-27T04:08:20.020Z,4.70
2022-10-27T04:10:48.467Z,4.33
2022-10-27T04:13:17.060Z,4.17
2022-10-27T04:15:45.526Z,4.90
2022-10-27T04:18:15.348Z,4.53
2022-10-27T04:20:43.820Z,4.23
2022-10-27T04:23:12.319Z,3.93
2022-10-27T04:25:40.839Z,4.00
2022-10-27T04:28:09.812Z,4.00
2022-10-27T04:30:38.396Z,3.63
2022-10-27T04:33:06.889Z,4.03
2022-10-27T04:35:36.749Z,4.13
2022-10-27T04:38:05.290Z,4.87
2022-10-27T04:40:33.740Z,4.17
2022-10-27T04:43:02.228Z,4.43
2022-10-27T04:45:30.684Z,4.17
2022-10-27T04:47:59.150Z,4.13
2022-10-27T04:50:28.056Z,4.33
2022-10-27T04:52:59.854Z,4.40
2022-10-27T04:55:29.295Z,4.70
2022-10-27T04:57:58.024Z,4.67
2022-10-27T05:00:26.779Z,4.20
2022-10-27T05:02:56.260Z,4.83
2022-10-27T05:05:26.132Z,4.30
2022-10-27T05:07:55.077Z,4.53
2022-10-27T05:10:25.771Z,5.70
2022-10-27T05:12:54.980Z,5.50
2022-10-27T05:15:23.609Z,5.70
2022-10-27T05:17:52.387Z,5.77
2022-10-27T05:20:22.518Z,5.43
2022-10-27T05:22:51.231Z,6.00
2022-10-27T05:25:19.724Z,5.87
2022-10-27T05:27:49.679Z,4.70
2022-10-27T05:30:18.911Z,6.20
2022-10-27T05:32:47.718Z,4.43
2022-10-27T05:35:16.348Z,4.27
2022-10-27T05:37:46.637Z,4.73
2022-10-27T05:40:15.618Z,4.47
2022-10-27T05:42:52.717Z,4.80
2022-10-27T05:45:23.066Z,4.17
2022-10-27T05:47:58.117Z,4.40
2022-10-27T05:50:27.248Z,5.27
2022-10-27T05:52:55.757Z,4.33
2022-10-27T05:55:24.758Z,4.87
2022-10-27T05:57:55.790Z,4.70
2022-10-27T06:00:24.996Z,4.33
2022-10-27T06:02:56.480Z,4.60
2022-10-27T06:05:25.244Z,4.67
2022-10-27T06:07:54.390Z,4.97
2022-10-27T06:10:23.221Z,4.73
2022-10-27T06:12:51.883Z,4.70
2022-10-27T06:15:21.731Z,5.97
2022-10-27T06:17:53.602Z,5.67
2022-10-27T06:20:22.437Z,5.47
2022-10-27T06:22:51.010Z,4.93
2022-10-27T06:25:19.621Z,4.83
2022-10-27T06:27:48.073Z,4.60
2022-10-27T06:30:16.683Z,5.93
2022-10-27T06:32:46.477Z,4.67
2022-10-27T06:35:14.968Z,4.20
2022-10-27T06:37:46.752Z,3.90
2022-10-27T06:40:16.580Z,3.50
2022-10-27T06:43:05.692Z,3.87
2022-10-27T06:45:34.910Z,3.93
2022-10-27T06:48:05.476Z,4.20
2022-10-27T06:50:34.603Z,6.37
2022-10-27T06:53:03.385Z,4.03
2022-10-27T06:55:32.618Z,4.07
2022-10-27T06:58:01.212Z,4.50
2022-10-27T07:00:29.816Z,3.63
2022-10-27T07:02:58.386Z,4.10
2022-10-27T07:05:28.530Z,3.50
2022-10-27T07:07:57.372Z,3.50
2022-10-27T07:10:25.888Z,3.97
2022-10-27T07:12:55.587Z,4.20
2022-10-27T07:15:25.159Z,4.87
2022-10-27T07:17:59.085Z,4.37
2022-10-27T07:20:30.717Z,4.93
2022-10-27T07:22:59.760Z,5.77
2022-10-27T07:25:29.134Z,5.57
2022-10-27T07:27:58.286Z,6.73
2022-10-27T07:30:28.380Z,5.73
2022-10-27T07:32:57.174Z,5.57
2022-10-27T07:35:26.506Z,5.60
2022-10-27T07:37:56.614Z,6.33
2022-10-27T07:40:28.788Z,6.17
2022-10-27T07:43:05.031Z,6.37
2022-10-27T07:45:37.870Z,7.70
2022-10-27T07:48:08.150Z,8.20
2022-10-27T07:50:36.612Z,5.87
2022-10-27T07:53:06.727Z,6.70
2022-10-27T07:55:36.774Z,6.10
2022-10-27T07:58:07.684Z,6.30
2022-10-27T08:00:37.692Z,7.20
2022-10-27T08:03:07.826Z,6.40
2022-10-27T08:05:37.952Z,6.40
2022-10-27T08:08:09.136Z,6.97
2022-10-27T08:10:39.331Z,7.17
2022-10-27T08:13:08.292Z,6.47
2022-10-27T08:15:40.127Z,6.47
2022-10-27T08:18:11.174Z,7.13
2022-10-27T08:20:41.964Z,6.13
2022-10-27T08:23:14.203Z,6.63
2022-10-27T08:25:44.013Z,6.77
2022-10-27T08:28:14.508Z,6.73
2022-10-27T08:30:50.763Z,8.00
2022-10-27T08:33:21.137Z,6.77
2022-10-27T08:35:50.652Z,7.37
2022-10-27T08:38:20.727Z,7.67
2022-10-27T08:41:13.426Z,7.50
2022-10-27T08:44:17.624Z,6.23
2022-10-27T08:46:48.782Z,7.27
2022-10-27T08:49:28.267Z,8.00
2022-10-27T08:51:59.604Z,7.50
2022-10-27T08:54:29.860Z,8.13
2022-10-27T08:56:59.795Z,8.43
2022-10-27T08:59:31.763Z,8.90
2022-10-27T09:02:07.047Z,8.80
2022-10-27T09:04:54.346Z,8.57
2022-10-27T09:07:28.542Z,8.07
2022-10-27T09:09:59.872Z,8.33
2022-10-27T09:12:57.092Z,7.83
2022-10-27T09:15:34.270Z,7.23
2022-10-27T09:18:06.320Z,6.60
2022-10-27T09:20:38.986Z,6.47
2022-10-27T09:23:13.127Z,7.60
2022-10-27T09:25:43.964Z,6.43
2022-10-27T09:28:18.096Z,7.70
2022-10-27T09:30:49.124Z,7.10
2022-10-27T09:33:21.261Z,8.23
2022-10-27T09:35:51.675Z,7.03
2022-10-27T09:38:24.088Z,8.17
2022-10-27T09:40:55.413Z,6.93
2022-10-27T09:43:24.799Z,8.80
2022-10-27T09:45:56.574Z,8.20
2022-10-27T09:48:27.167Z,11.53
2022-10-27T09:50:58.945Z,12.87
2022-10-27T09:53:39.080Z,9.83
2022-10-27T09:56:10.844Z,9.83
2022-10-27T09:58:47.173Z,9.43
2022-10-27T10:01:15.684Z,8.23
2022-10-27T10:03:55.330Z,9.03
2022-10-27T10:06:30.867Z,8.87
2022-10-27T10:09:23.188Z,7.77
2022-10-27T10:11:53.145Z,8.30
2022-10-27T10:14:23.893Z,7.90
2022-10-27T10:16:54.104Z,8.83
2022-10-27T10:19:24.330Z,7.73
2022-10-27T10:21:54.504Z,8.50
2022-10-27T10:24:25.107Z,9.13
2022-10-27T10:26:56.138Z,8.10
2022-10-27T10:29:28.674Z,7.90
2022-10-27T10:32:11.723Z,7.53
2022-10-27T10:34:43.037Z,8.77
2022-10-27T10:37:33.276Z,7.97
2022-10-27T10:40:20.344Z,8.90
2022-10-27T10:43:04.801Z,6.53
2022-10-27T10:45:35.726Z,6.27
2022-10-27T10:48:08.987Z,6.00
2022-10-27T10:50:46.475Z,10.90
2022-10-27T10:53:30.734Z,7.13
2022-10-27T10:56:03.211Z,4.90
2022-10-27T10:58:35.061Z,5.90
2022-10-27T11:01:05.382Z,6.00
2022-10-27T11:03:36.441Z,5.70
2022-10-27T11:06:06.853Z,5.77
2022-10-27T11:08:42.335Z,4.90
2022-10-27T11:11:16.093Z,5.50
2022-10-27T11:13:49.045Z,5.23
2022-10-27T11:16:17.549Z,5.40
2022-10-27T11:18:51.811Z,5.03
2022-10-27T11:21:29.735Z,4.87
2022-10-27T11:23:59.434Z,5.00
2022-10-27T11:26:32.153Z,6.20
2022-10-27T11:29:08.457Z,5.30
2022-10-27T11:31:42.004Z,5.20
2022-10-27T11:34:17.763Z,4.63
2022-10-27T11:36:49.375Z,5.00
2022-10-27T11:39:24.314Z,4.77
2022-10-27T11:41:59.437Z,4.17
2022-10-27T11:44:33.924Z,5.33
2022-10-27T11:47:06.769Z,4.77
2022-10-27T11:49:38.421Z,4.27
2022-10-27T11:52:10.740Z,4.77
2022-10-27T11:54:39.948Z,4.73
2022-10-27T11:57:34.754Z,4.63
2022-10-27T12:00:16.717Z,5.00
2022-10-27T12:03:26.596Z,4.60
2022-10-27T12:05:59.259Z,5.53
2022-10-27T12:08:37.748Z,5.37
2022-10-27T12:11:17.179Z,5.20
2022-10-27T12:13:51.406Z,5.53
2022-10-27T12:16:25.983Z,4.60
2022-10-27T12:18:59.448Z,4.47
2022-10-27T12:21:30.493Z,4.60
2022-10-27T12:24:03.293Z,4.47
2022-10-27T12:26:34.807Z,4.30
2022-10-27T12:29:04.778Z,5.17
2022-10-27T12:31:38.770Z,4.40
2022-10-27T12:34:09.872Z,4.37
2022-10-27T12:36:45.548Z,4.53
2022-10-27T12:39:20.978Z,5.23
2022-10-27T12:41:54.134Z,5.60
2022-10-27T12:44:32.142Z,5.73
2022-10-27T12:47:13.108Z,4.53
2022-10-27T12:49:46.728Z,4.63
2022-10-27T12:52:17.163Z,4.90
2022-10-27T12:54:55.650Z,4.60
2022-10-27T12:57:33.106Z,4.17
2022-10-27T13:00:06.636Z,5.13
2022-10-27T13:02:40.961Z,5.43
2022-10-27T13:05:30.338Z,3.97
2022-10-27T13:08:13.723Z,4.50
2022-10-27T13:11:03.944Z,5.37
2022-10-27T13:13:44.656Z,5.30
2022-10-27T13:16:18.110Z,8.63
2022-10-27T13:18:57.712Z,4.73
2022-10-27T13:21:29.356Z,5.07
2022-10-27T13:24:02.928Z,4.20
2022-10-27T13:26:34.743Z,4.93
2022-10-27T13:29:07.259Z,5.03
2022-10-27T13:31:35.694Z,4.80
2022-10-27T13:34:19.623Z,4.70
2022-10-27T13:36:48.386Z,4.87
2022-10-27T13:39:45.998Z,4.83
2022-10-27T13:42:17.992Z,4.67
2022-10-27T13:44:48.677Z,5.33
2022-10-27T13:47:19.206Z,5.20
2022-10-27T13:49:59.245Z,4.50
2022-10-27T13:52:29.790Z,4.70
2022-10-27T13:55:34.903Z,5.00
2022-10-27T13:58:25.703Z,5.27
2022-10-27T14:01:03.065Z,5.20
2022-10-27T14:03:43.699Z,4.83
2022-10-27T14:06:28.944Z,4.13
2022-10-27T14:08:57.747Z,5.77
2022-10-27T14:11:28.370Z,4.50
2022-10-27T14:13:58.365Z,4.43
2022-10-27T14:16:29.912Z,4.27
2022-10-27T14:19:04.374Z,4.10
2022-10-27T14:21:36.443Z,4.80
2022-10-27T14:24:06.285Z,4.37
2022-10-27T14:26:36.367Z,5.03
2022-10-27T14:29:05.539Z,4.27
2022-10-27T14:31:35.748Z,4.60
2022-10-27T14:34:18.572Z,3.97
2022-10-27T14:36:49.369Z,4.20
2022-10-27T14:39:25.438Z,4.80
2022-10-27T14:41:55.296Z,5.47
2022-10-27T14:44:26.934Z,5.73
2022-10-27T14:46:58.410Z,4.40
2022-10-27T14:49:32.349Z,4.30
2022-10-27T14:52:09.344Z,3.70
2022-10-27T14:54:38.657Z,4.37
2022-10-27T14:57:28.106Z,4.20
2022-10-27T14:59:57.000Z,4.23
2022-10-27T15:02:26.579Z,4.40
2022-10-27T15:04:55.474Z,5.13
2022-10-27T15:07:25.361Z,5.40
2022-10-27T15:09:53.830Z,5.63
2022-10-27T15:12:25.338Z,5.03
2022-10-27T15:14:55.386Z,5.30
2022-10-27T15:17:29.053Z,5.17
2022-10-27T15:19:58.951Z,5.30
2022-10-27T15:22:29.006Z,4.73
2022-10-27T15:24:59.119Z,5.30
2022-10-27T15:27:33.228Z,4.93
2022-10-27T15:30:02.903Z,5.33
2022-10-27T15:32:38.780Z,4.80
2022-10-27T15:35:32.015Z,5.10
2022-10-27T15:38:03.239Z,5.50
2022-10-27T15:40:43.779Z,6.03
2022-10-27T15:43:24.496Z,5.50
2022-10-27T15:45:54.022Z,5.03
2022-10-27T15:48:34.152Z,5.63
2022-10-27T15:51:04.667Z,5.53
2022-10-27T15:53:36.520Z,4.77
2022-10-27T15:56:06.965Z,5.20
2022-10-27T15:58:37.058Z,4.80
2022-10-27T16:01:11.405Z,4.97
2022-10-27T16:03:43.461Z,5.37
2022-10-27T16:06:27.119Z,4.83
2022-10-27T16:08:58.270Z,5.37
2022-10-27T16:11:28.687Z,4.50
2022-10-27T16:13:59.152Z,6.20
2022-10-27T16:16:27.851Z,5.37
2022-10-27T16:18:56.439Z,5.50
2022-10-27T16:21:27.699Z,5.20
2022-10-27T16:23:58.167Z,4.97
2022-10-27T16:26:29.419Z,5.97
2022-10-27T16:29:01.069Z,6.10
2022-10-27T16:31:30.287Z,6.43
2022-10-27T16:33:59.488Z,7.07
2022-10-27T16:36:28.097Z,7.03
2022-10-27T16:38:58.454Z,6.90
2022-10-27T16:41:28.967Z,6.40
2022-10-27T16:43:57.421Z,6.90
2022-10-27T16:46:25.876Z,6.30
2022-10-27T16:48:54.469Z,6.03
2022-10-27T16:51:23.248Z,6.17
2022-10-27T16:53:51.944Z,6.13
2022-10-27T16:56:21.934Z,7.33
2022-10-27T16:58:50.338Z,6.30
2022-10-27T17:01:21.023Z,5.93
2022-10-27T17:03:49.665Z,6.10
2022-10-27T17:06:21.697Z,5.60
2022-10-27T17:08:50.298Z,5.77
2022-10-27T17:11:19.097Z,6.70
2022-10-27T17:13:48.870Z,6.40
2022-10-27T17:16:18.417Z,6.20
2022-10-27T17:18:47.679Z,6.23
2022-10-27T17:21:16.260Z,5.23
2022-10-27T17:23:45.551Z,6.67
2022-10-27T17:26:15.174Z,6.17
2022-10-27T17:28:46.281Z,5.97
2022-10-27T17:31:20.902Z,5.77
2022-10-27T17:33:53.081Z,6.33
2022-10-27T17:36:21.544Z,5.77
2022-10-27T17:38:50.092Z,6.40
2022-10-27T17:41:19.085Z,6.10
2022-10-27T17:43:47.550Z,5.73
2022-10-27T17:46:18.514Z,6.37
2022-10-27T17:48:48.520Z,6.50
2022-10-27T17:51:18.300Z,6.43
2022-10-27T17:53:47.513Z,7.10
2022-10-27T17:56:18.519Z,6.80
2022-10-27T17:58:47.778Z,6.73
2022-10-27T18:01:19.688Z,6.80
2022-10-27T18:03:49.406Z,7.27
2022-10-27T18:06:19.394Z,6.97
2022-10-27T18:08:52.882Z,6.90
2022-10-27T18:11:25.474Z,7.30
2022-10-27T18:13:57.425Z,7.03
2022-10-27T18:16:32.386Z,6.70
2022-10-27T18:19:02.075Z,7.50
2022-10-27T18:21:32.098Z,7.90
2022-10-27T18:24:01.391Z,8.17
2022-10-27T18:26:31.500Z,8.17
2022-10-27T18:29:00.176Z,8.70
2022-10-27T18:31:33.609Z,7.97
2022-10-27T18:34:02.059Z,7.97
2022-10-27T18:36:30.654Z,7.87
2022-10-27T18:39:00.677Z,8.17
2022-10-27T18:41:31.309Z,7.43
2022-10-27T18:44:00.300Z,7.30
2022-10-27T18:46:30.151Z,7.57
2022-10-27T18:49:00.067Z,7.27
2022-10-27T18:51:30.689Z,7.53
2022-10-27T18:54:01.705Z,8.60
2022-10-27T18:56:30.667Z,8.60
2022-10-27T18:59:00.420Z,8.77
2022-10-27T19:01:30.308Z,8.37
2022-10-27T19:04:00.437Z,8.00
2022-10-27T19:06:29.917Z,8.30
2022-10-27T19:08:59.647Z,8.63
2022-10-27T19:11:30.661Z,8.67
2022-10-27T19:14:02.134Z,9.03
2022-10-27T19:16:32.309Z,9.10
2022-10-27T19:19:01.506Z,8.80
2022-10-27T19:21:30.362Z,9.50
2022-10-27T19:24:01.941Z,9.23
2022-10-27T19:26:31.821Z,9.10
2022-10-27T19:29:00.507Z,10.23
2022-10-27T19:31:30.595Z,9.53
2022-10-27T19:34:01.372Z,9.80
2022-10-27T19:36:31.534Z,10.83
2022-10-27T19:39:01.585Z,11.10
2022-10-27T19:41:32.147Z,9.13
2022-10-27T19:44:00.848Z,8.93
2022-10-27T19:46:31.169Z,9.13
2022-10-27T19:49:02.304Z,7.87
2022-10-27T19:51:32.348Z,9.13
2022-10-27T19:54:01.007Z,8.90
2022-10-27T19:56:32.184Z,8.83
2022-10-27T19:59:03.370Z,8.50
2022-10-27T20:01:34.744Z,8.77
2022-10-27T20:04:06.254Z,8.97
2022-10-27T20:06:35.581Z,8.97
2022-10-27T20:09:04.879Z,9.50
2022-10-27T20:11:34.738Z,8.47
2022-10-27T20:14:03.558Z,8.90
2022-10-27T20:16:35.241Z,8.47
2022-10-27T20:19:07.153Z,8.47
2022-10-27T20:21:35.711Z,8.23
2022-10-27T20:24:10.329Z,7.90
2022-10-27T20:26:39.510Z,7.80
2022-10-27T20:29:08.303Z,8.40
2022-10-27T20:31:37.051Z,7.90
2022-10-27T20:34:10.278Z,8.60
2022-10-27T20:36:39.464Z,8.50
2022-10-27T20:39:09.236Z,8.37
2022-10-27T20:41:37.768Z,8.63
2022-10-27T20:44:06.740Z,8.30
2022-10-27T20:46:35.950Z,8.20
2022-10-27T20:49:05.900Z,8.60
2022-10-27T20:51:34.728Z,7.57
2022-10-27T20:54:04.029Z,7.33
2022-10-27T20:56:35.372Z,7.93
2022-10-27T20:59:04.569Z,8.03
2022-10-27T21:01:34.946Z,7.80
2022-10-27T21:04:06.589Z,10.43
2022-10-27T21:06:37.824Z,11.30
2022-10-27T21:09:07.737Z,12.23
2022-10-27T21:11:36.402Z,8.93
2022-10-27T21:14:06.452Z,10.40
2022-10-27T21:16:35.011Z,10.03
2022-10-27T21:19:05.225Z,11.03
2022-10-27T21:21:35.126Z,9.40
2022-10-27T21:24:04.600Z,8.90
2022-10-27T21:26:33.505Z,9.47
2022-10-27T21:29:02.086Z,9.30
2022-10-27T21:31:32.120Z,9.70
2022-10-27T21:34:03.034Z,10.77
2022-10-27T21:36:31.742Z,9.37
2022-10-27T21:39:01.790Z,8.73
2022-10-27T21:41:30.288Z,9.07
2022-10-27T21:43:58.713Z,9.17
2022-10-27T21:46:28.833Z,9.40
2022-10-27T21:48:58.688Z,9.70
2022-10-27T21:51:27.417Z,8.93
2022-10-27T21:54:00.573Z,8.87
2022-10-27T21:56:32.152Z,7.83
2022-10-27T21:59:00.875Z,9.90
2022-10-27T22:01:30.050Z,9.83
2022-10-27T22:03:58.761Z,9.80
2022-10-27T22:06:29.448Z,8.57
2022-10-27T22:08:58.641Z,8.63
2022-10-27T22:11:29.033Z,9.03
2022-10-27T22:13:59.551Z,8.73
2022-10-27T22:16:29.287Z,9.20
2022-10-27T22:18:59.898Z,9.33
2022-10-27T22:21:30.332Z,8.37
2022-10-27T22:23:59.160Z,8.43
2022-10-27T22:26:28.108Z,9.47
2022-10-27T22:28:56.724Z,8.83
2022-10-27T22:31:28.268Z,8.50
2022-10-27T22:33:57.006Z,8.47
2022-10-27T22:36:26.422Z,8.53
2022-10-27T22:38:55.649Z,9.60
2022-10-27T22:41:24.596Z,7.77
2022-10-27T22:43:53.468Z,8.17
2022-10-27T22:46:24.266Z,8.47
2022-10-27T22:48:55.660Z,8.40
2022-10-27T22:51:26.788Z,9.07
2022-10-27T22:53:57.370Z,9.07
2022-10-27T22:56:27.348Z,7.83
2022-10-27T22:58:56.917Z,7.50
2022-10-27T23:01:27.832Z,8.70
2022-10-27T23:03:58.794Z,12.77
2022-10-27T23:06:29.428Z,9.53
2022-10-27T23:08:59.402Z,8.93
2022-10-27T23:11:35.657Z,8.10
2022-10-27T23:14:04.456Z,8.40
2022-10-27T23:16:33.892Z,7.80
2022-10-27T23:19:04.254Z,7.77
2022-10-27T23:21:33.617Z,7.80
2022-10-27T23:24:02.792Z,7.97
2022-10-27T23:26:33.229Z,8.83
2022-10-27T23:29:02.824Z,8.43
2022-10-27T23:31:32.229Z,8.93
2022-10-27T23:34:01.750Z,9.27
2022-10-27T23:36:33.964Z,8.60
2022-10-27T23:39:02.442Z,7.60
2022-10-27T23:41:31.176Z,8.13
2022-10-27T23:44:00.470Z,8.10
2022-10-27T23:46:29.805Z,8.40
2022-10-27T23:48:58.502Z,7.63
2022-10-27T23:51:27.405Z,8.13
2022-10-27T23:53:57.502Z,8.03
2022-10-27T23:56:26.265Z,7.20
2022-10-27T23:58:54.786Z,7.97
